Time;durP1;ratioP1;P1;durP2;ratioP2;P2;SDS_P1;SDS_P2;PMS_P1;PMS_P2;Temp;Humidity;BMP_temperature;BMP_pressure;BME280_temperature;BME280_humidity;BME280_pressure;Samples;Min_cycle;Max_cycle;Signal;HPM_P1;HPM_P2
2023/06/27 00:00:02;;;;;;;;;;;;;;;21.86;88.39;99295.47;346954;28;1348;-76
2023/06/27 00:00:13;;;;;;;;;;;;;;;21.85;88.61;99285.81;346874;28;1469;-76
2023/06/27 00:00:25;;;;;;;;;;;;;;;21.85;88.37;99295.63;345013;28;1478;-76
2023/06/27 00:00:35;;;;;;;;;;;;;;;21.83;88.42;99290.44;340854;28;2691;-76
2023/06/27 00:00:45;;;;;;;;;;;;;;;21.82;88.59;99286.09;344214;28;1232;-76
2023/06/27 00:00:56;;;;;;;;;;;;;;;21.83;88.28;99286.94;341860;28;1914;-76
2023/06/27 00:01:06;;;;;;;;;;;;;;;21.83;88.33;99281.59;340947;28;1779;-76
2023/06/27 00:01:16;;;;;;;;;;;;;;;21.83;88.52;99286.94;341861;28;1406;-76
2023/06/27 00:01:26;;;;;;;;;;;;;;;21.83;88.44;99279.78;340729;29;866;-76
2023/06/27 00:01:39;;;;;;;;;;;;;;;21.83;88.52;99282.44;338425;29;1309;-77
2023/06/27 00:01:49;;;;;;;;;;;;;;;21.86;88.58;99289.31;339523;28;978;-77
2023/06/27 00:02:00;;;;;;;;;;;;;;;21.86;88.52;99286.63;339376;28;1383;-77
2023/06/27 00:02:12;;;;;;;;;;;;;;;21.87;88.49;99285.66;335411;29;2187;-77
2023/06/27 00:02:22;;;;;;;;;;;;;;;21.87;88.83;99283.00;334550;29;1746;-77
2023/06/27 00:02:32;;;;;;;;;;;;;;;21.88;88.90;99287.34;339752;29;1785;-77
2023/06/27 00:02:43;;;;;;;;;;;;;;;21.87;88.81;99280.31;337303;29;1676;-77
2023/06/27 00:02:53;;;;;;;;;;;;;;;21.86;88.61;99283.97;337090;29;772;-77
2023/06/27 00:03:05;;;;;;;;;;;;;;;21.87;88.51;99283.00;336633;29;1904;-77
2023/06/27 00:03:18;;;;;;;;;;;;;;;21.85;88.74;99293.78;338439;29;1528;-77
2023/06/27 00:03:29;;;;;;;;;;;;;;;21.84;88.34;99291.28;338679;29;945;-77
2023/06/27 00:03:39;;;;;;;;;;;;;;;21.85;88.40;99282.28;337030;29;1452;-77
2023/06/27 00:03:51;;;;;;;;;;;;;;;21.84;88.58;99281.44;335516;29;1563;-77
2023/06/27 00:04:01;;;;;;;;;;;;;;;21.83;88.29;99284.25;339092;29;1749;-77
2023/06/27 00:04:13;;;;;;;;;;;;;;;21.82;87.82;99286.09;337915;29;2185;-77
2023/06/27 00:04:23;;;;;;;;;;;;;;;21.81;88.09;99287.06;338247;29;1029;-77
2023/06/27 00:04:34;;;;;;;;;;;;;;;21.80;87.84;99288.03;340783;28;2278;-77
2023/06/27 00:04:44;;;;;;;;;;;;;;;21.82;88.03;99277.25;340364;29;3406;-77
2023/06/27 00:04:56;;;;;;;;;;;;;;;21.81;88.04;99288.88;338299;29;1357;-77
2023/06/27 00:05:07;;;;;;;;;;;;;;;21.79;87.90;99283.69;339692;29;1361;-77
2023/06/27 00:05:17;;;;;;;;;;;;;;;21.78;87.95;99287.34;340491;29;2298;-77
2023/06/27 00:05:29;;;;;;;;;;;;;;;21.78;87.92;99291.84;336453;29;1722;-76
2023/06/27 00:05:39;;;;;;;;;;;;;;;21.77;87.90;99291.00;334484;29;1378;-76
2023/06/27 00:05:50;;;;;;;;;;;;;;;21.77;87.87;99280.34;332971;29;1405;-76
2023/06/27 00:06:00;;;;;;;;;;;;;;;21.78;87.75;99286.50;332212;29;2387;-76
2023/06/27 00:06:10;;;;;;;;;;;;;;;21.77;88.02;99284.81;330591;29;2587;-76
2023/06/27 00:06:21;;;;;;;;;;;;;;;21.79;87.47;99285.53;329840;29;858;-76
2023/06/27 00:06:31;;;;;;;;;;;;;;;21.80;87.84;99289.88;331460;29;2731;-76
2023/06/27 00:06:41;;;;;;;;;;;;;;;21.79;87.49;99285.53;330617;29;3139;-76
2023/06/27 00:06:51;;;;;;;;;;;;;;;21.79;87.74;99289.03;333120;29;1286;-76
2023/06/27 00:07:02;;;;;;;;;;;;;;;21.78;87.87;99284.69;330773;29;3221;-76
2023/06/27 00:07:12;;;;;;;;;;;;;;;21.78;87.95;99283.84;328720;29;2747;-76
2023/06/27 00:07:27;;;;;;;;;;;;;;;21.79;87.73;99290.84;329466;30;1214;-76
2023/06/27 00:07:42;;;;;;;;;;;;;;;21.78;88.00;99286.50;325898;30;793;-76
2023/06/27 00:07:52;;;;;;;;;;;;;;;21.79;88.04;99283.69;322480;30;1287;-76
2023/06/27 00:08:02;;;;;;;;;;;;;;;21.79;87.97;99283.69;318714;30;2364;-76
2023/06/27 00:08:12;;;;;;;;;;;;;;;21.80;87.68;99289.88;316516;31;2865;-76
2023/06/27 00:08:23;;;;;;;;;;;;;;;21.80;87.57;99284.53;314255;31;1332;-76
2023/06/27 00:08:33;;;;;;;;;;;;;;;21.80;87.58;99284.53;313523;31;3715;-76
2023/06/27 00:08:45;;;;;;;;;;;;;;;21.80;88.01;99285.38;311056;31;4173;-76
2023/06/27 00:08:55;;;;;;;;;;;;;;;21.80;87.83;99289.88;310999;31;4366;-76
2023/06/27 00:09:06;;;;;;;;;;;;;;;21.80;87.98;99290.72;310875;31;1391;-76
2023/06/27 00:09:16;;;;;;;;;;;;;;;21.81;87.50;99294.22;308485;31;4803;-76
2023/06/27 00:09:26;;;;;;;;;;;;;;;21.81;88.05;99294.22;307253;31;3994;-76
2023/06/27 00:09:38;;;;;;;;;;;;;;;21.81;87.92;99294.22;309607;31;1307;-76
2023/06/27 00:09:49;;;;;;;;;;;;;;;21.81;87.95;99291.56;311050;31;4390;-76
2023/06/27 00:09:59;;;;;;;;;;;;;;;21.81;87.63;99296.88;309081;31;3398;-76
2023/06/27 00:10:10;;;;;;;;;;;;;;;21.82;88.03;99287.91;305789;32;3371;-76
2023/06/27 00:10:20;;;;;;;;;;;;;;;21.81;88.04;99291.56;302185;32;1411;-76
2023/06/27 00:10:30;;;;;;;;;;;;;;;21.81;88.11;99292.41;300609;32;4267;-77
2023/06/27 00:10:40;;;;;;;;;;;;;;;21.81;87.77;99288.88;301511;32;5188;-77
2023/06/27 00:10:51;;;;;;;;;;;;;;;21.81;88.01;99288.88;305563;32;785;-77
2023/06/27 00:11:01;;;;;;;;;;;;;;;21.81;87.97;99291.56;299436;32;5384;-76
2023/06/27 00:11:11;;;;;;;;;;;;;;;21.82;87.97;99295.91;295869;32;6507;-76
2023/06/27 00:11:21;;;;;;;;;;;;;;;21.81;88.63;99289.72;298118;33;1796;-76
2023/06/27 00:11:32;;;;;;;;;;;;;;;21.82;88.21;99298.56;298363;32;6307;-77
2023/06/27 00:11:42;;;;;;;;;;;;;;;21.82;88.32;99298.56;297164;33;5527;-76
2023/06/27 00:11:52;;;;;;;;;;;;;;;21.81;88.34;99294.22;296112;33;1362;-76
2023/06/27 00:12:03;;;;;;;;;;;;;;;21.80;88.47;99298.69;291397;33;6026;-76
2023/06/27 00:12:13;;;;;;;;;;;;;;;21.79;88.79;99297.03;290703;33;4579;-77
2023/06/27 00:12:23;;;;;;;;;;;;;;;21.80;88.64;99295.19;294193;33;1317;-77
2023/06/27 00:12:33;;;;;;;;;;;;;;;21.79;88.63;99302.34;292237;33;5082;-77
2023/06/27 00:12:46;;;;;;;;;;;;;;;21.78;89.10;99302.50;291113;33;8146;-77
2023/06/27 00:12:56;;;;;;;;;;;;;;;21.78;89.02;99299.81;288507;34;7392;-77
2023/06/27 00:13:15;;;;;;;;;;;;;;;21.77;89.52;99295.47;287518;34;886;-76
2023/06/27 00:13:25;;;;;;;;;;;;;;;21.77;89.65;99292.81;286005;34;9458;-76
2023/06/27 00:13:40;;;;;;;;;;;;;;;21.77;89.69;99300.81;287496;34;1236;-76
2023/06/27 00:15:34;;;;;;;;;;;;;;;21.81;89.94;99302.22;2495561;27;19940;-77
2023/06/27 00:15:44;;;;;;;;;;;;;;;21.81;89.71;99299.53;354693;27;914;-77
2023/06/27 00:15:55;;;;;;;;;;;;;;;21.81;90.12;99302.22;353387;28;799;-77
2023/06/27 00:16:06;;;;;;;;;;;;;;;21.80;89.66;99305.84;352002;28;717;-77
2023/06/27 00:16:17;;;;;;;;;;;;;;;21.80;90.26;99303.19;350378;28;1434;-77
2023/06/27 00:16:32;;;;;;;;;;;;;;;21.81;90.35;99307.53;349031;28;781;-77
2023/06/27 00:16:42;;;;;;;;;;;;;;;21.82;90.43;99311.88;349051;28;1608;-77
2023/06/27 00:16:52;;;;;;;;;;;;;;;21.82;90.41;99309.22;349012;28;1360;-77
2023/06/27 00:17:11;;;;;;;;;;;;;;;21.81;90.22;99307.53;348206;28;3495;-77
2023/06/27 00:17:22;;;;;;;;;;;;;;;21.83;90.77;99308.25;350199;28;2773;-77
2023/06/27 00:17:33;;;;;;;;;;;;;;;21.83;90.61;99310.91;347557;28;1316;-77
2023/06/27 00:17:43;;;;;;;;;;;;;;;21.83;90.38;99316.22;345210;28;3169;-77
2023/06/27 00:17:55;;;;;;;;;;;;;;;21.82;90.41;99309.22;344773;28;1741;-77
2023/06/27 00:18:10;;;;;;;;;;;;;;;21.83;90.78;99313.56;345282;28;1321;-77
2023/06/27 00:18:23;;;;;;;;;;;;;;;21.81;90.01;99307.53;345866;28;1699;-77
2023/06/27 00:18:34;;;;;;;;;;;;;;;21.79;90.12;99315.66;346341;28;1421;-77
2023/06/27 00:18:47;;;;;;;;;;;;;;;21.80;90.25;99316.50;346306;28;869;-78
2023/06/27 00:19:03;;;;;;;;;;;;;;;21.79;89.74;99312.16;346148;28;2683;-78
2023/06/27 00:19:13;;;;;;;;;;;;;;;21.77;89.60;99312.31;346200;28;753;-77
2023/06/27 00:19:24;;;;;;;;;;;;;;;21.76;89.75;99310.63;346301;28;1049;-77
2023/06/27 00:19:34;;;;;;;;;;;;;;;21.77;90.08;99311.47;348945;28;1287;-77
2023/06/27 00:19:46;;;;;;;;;;;;;;;21.77;89.98;99314.13;347510;28;1575;-77
2023/06/27 00:19:58;;;;;;;;;;;;;;;21.75;89.56;99308.94;348275;28;893;-76
2023/06/27 00:20:11;;;;;;;;;;;;;;;21.77;89.32;99311.47;349116;28;958;-76
2023/06/27 00:20:21;;;;;;;;;;;;;;;21.74;89.42;99315.25;347816;28;753;-76
2023/06/27 00:20:34;;;;;;;;;;;;;;;21.74;89.38;99317.06;346262;28;1196;-76
2023/06/27 00:20:44;;;;;;;;;;;;;;;21.72;89.09;99319.03;347827;28;821;-76
2023/06/27 00:20:54;;;;;;;;;;;;;;;21.71;89.22;99312.03;346118;28;1204;-76
2023/06/27 00:21:05;;;;;;;;;;;;;;;21.72;89.31;99316.38;347660;28;1534;-76
2023/06/27 00:21:15;;;;;;;;;;;;;;;21.73;89.05;99318.91;347377;28;1283;-76
2023/06/27 00:21:28;;;;;;;;;;;;;;;21.74;89.69;99319.75;347276;28;1559;-76
2023/06/27 00:21:39;;;;;;;;;;;;;;;21.75;90.12;99314.28;347553;28;1405;-76
2023/06/27 00:21:49;;;;;;;;;;;;;;;21.75;89.97;99310.75;347789;28;789;-76
2023/06/27 00:21:59;;;;;;;;;;;;;;;21.77;90.21;99311.47;347168;28;1311;-76
2023/06/27 00:22:09;;;;;;;;;;;;;;;21.77;89.78;99317.63;347389;28;1237;-76
2023/06/27 00:22:20;;;;;;;;;;;;;;;21.78;89.97;99321.97;346435;28;797;-76
2023/06/27 00:22:30;;;;;;;;;;;;;;;21.78;89.87;99307.81;347504;28;812;-77
2023/06/27 00:22:40;;;;;;;;;;;;;;;21.79;89.77;99312.16;346466;28;813;-77
2023/06/27 00:22:51;;;;;;;;;;;;;;;21.78;89.83;99313.16;347659;28;1093;-77
2023/06/27 00:23:19;;;;;;;;;;;;;;;21.79;89.45;99322.81;349181;28;2486;-77
2023/06/27 00:23:33;;;;;;;;;;;;;;;21.78;89.58;99315.81;345067;28;1226;-77
2023/06/27 00:23:43;;;;;;;;;;;;;;;21.78;89.43;99318.47;345240;28;1446;-77
2023/06/27 00:23:55;;;;;;;;;;;;;;;21.80;89.66;99316.50;346255;28;1497;-76
2023/06/27 00:24:06;;;;;;;;;;;;;;;21.80;89.86;99319.19;345056;28;829;-76
2023/06/27 00:24:16;;;;;;;;;;;;;;;21.79;90.17;99314.84;344894;28;1607;-76
2023/06/27 00:24:26;;;;;;;;;;;;;;;21.80;89.75;99319.19;342180;28;1914;-76
2023/06/27 00:24:37;;;;;;;;;;;;;;;21.79;89.89;99321.00;340512;29;909;-76
2023/06/27 00:24:47;;;;;;;;;;;;;;;21.81;90.24;99318.19;338539;29;1286;-77
2023/06/27 00:24:57;;;;;;;;;;;;;;;21.79;90.24;99317.50;342202;28;1272;-77
2023/06/27 00:25:09;;;;;;;;;;;;;;;21.78;90.50;99316.66;339482;29;1355;-77
2023/06/27 00:25:20;;;;;;;;;;;;;;;21.77;90.18;99322.97;339487;29;1311;-77
2023/06/27 00:25:30;;;;;;;;;;;;;;;21.76;90.09;99318.63;340658;28;1582;-77
2023/06/27 00:25:40;;;;;;;;;;;;;;;21.75;90.61;99318.75;338763;29;1646;-76
2023/06/27 00:25:50;;;;;;;;;;;;;;;21.76;90.55;99325.78;335750;29;1295;-76
2023/06/27 00:26:01;;;;;;;;;;;;;;;21.73;90.30;99321.56;338946;29;1393;-76
2023/06/27 00:26:14;;;;;;;;;;;;;;;21.71;90.16;99317.34;334827;29;2032;-76
2023/06/27 00:26:24;;;;;;;;;;;;;;;21.69;90.23;99319.31;330696;29;1718;-76
2023/06/27 00:26:35;;;;;;;;;;;;;;;21.70;90.75;99321.84;329859;29;1392;-76
2023/06/27 00:26:45;;;;;;;;;;;;;;;21.70;90.29;99321.00;329210;29;1294;-76
2023/06/27 00:26:55;;;;;;;;;;;;;;;21.69;90.20;99324.66;330418;29;896;-76
2023/06/27 00:27:05;;;;;;;;;;;;;;;21.69;90.43;99314.00;330968;29;3072;-76
2023/06/27 00:27:16;;;;;;;;;;;;;;;21.68;90.86;99317.63;326325;30;3104;-76
2023/06/27 00:27:26;;;;;;;;;;;;;;;21.68;90.21;99317.63;323263;30;4958;-76
2023/06/27 00:27:36;;;;;;;;;;;;;;;21.66;90.34;99319.63;324101;30;1015;-76
2023/06/27 00:27:47;;;;;;;;;;;;;;;21.66;90.12;99314.31;327100;30;733;-76
2023/06/27 00:27:57;;;;;;;;;;;;;;;21.66;90.33;99319.63;323099;30;2213;-76
2023/06/27 00:28:07;;;;;;;;;;;;;;;21.65;90.69;99310.78;323057;30;2324;-77
2023/06/27 00:28:17;;;;;;;;;;;;;;;21.64;90.49;99311.78;325805;30;900;-77
2023/06/27 00:28:28;;;;;;;;;;;;;;;21.64;90.44;99313.59;326471;29;2531;-77
2023/06/27 00:28:38;;;;;;;;;;;;;;;21.64;90.69;99316.25;329513;29;2409;-77
2023/06/27 00:28:48;;;;;;;;;;;;;;;21.63;90.38;99315.41;333296;29;890;-77
2023/06/27 00:28:58;;;;;;;;;;;;;;;21.64;90.56;99314.44;332460;29;1541;-77
2023/06/27 00:29:09;;;;;;;;;;;;;;;21.65;90.31;99312.63;332455;29;1384;-77
2023/06/27 00:29:19;;;;;;;;;;;;;;;21.66;90.28;99316.97;332018;29;745;-77
2023/06/27 00:29:29;;;;;;;;;;;;;;;21.65;90.52;99317.94;331479;29;2107;-77
2023/06/27 00:29:39;;;;;;;;;;;;;;;21.63;90.98;99310.09;326989;29;2328;-77
2023/06/27 00:29:50;;;;;;;;;;;;;;;21.63;91.04;99310.09;322260;30;1197;-77
2023/06/27 00:30:00;;;;;;;;;;;;;;;21.64;91.16;99308.28;325504;30;3233;-77
2023/06/27 00:30:10;;;;;;;;;;;;;;;21.63;91.01;99309.25;325360;30;3229;-77
2023/06/27 00:30:22;;;;;;;;;;;;;;;21.63;90.75;99309.25;328246;30;1366;-77
2023/06/27 00:30:32;;;;;;;;;;;;;;;21.62;90.57;99308.41;324574;30;1272;-77
2023/06/27 00:30:43;;;;;;;;;;;;;;;21.63;90.69;99306.59;317462;30;3416;-77
2023/06/27 00:30:53;;;;;;;;;;;;;;;21.61;90.50;99306.72;318122;30;3067;-77
2023/06/27 00:31:03;;;;;;;;;;;;;;;21.61;90.36;99305.88;320976;30;1191;-77
2023/06/27 00:31:13;;;;;;;;;;;;;;;21.59;90.45;99314.00;319434;30;1972;-77
2023/06/27 00:31:24;;;;;;;;;;;;;;;21.61;90.97;99312.06;319553;30;2157;-77
2023/06/27 00:31:34;;;;;;;;;;;;;;;21.61;90.58;99308.56;319810;30;1582;-77
2023/06/27 00:31:45;;;;;;;;;;;;;;;21.60;90.47;99305.03;318396;30;2782;-77
2023/06/27 00:31:55;;;;;;;;;;;;;;;21.61;90.98;99300.56;315181;31;3823;-77
2023/06/27 00:32:05;;;;;;;;;;;;;;;21.60;91.04;99304.19;314263;31;744;-77
2023/06/27 00:32:16;;;;;;;;;;;;;;;21.57;90.83;99306.16;311738;31;5228;-77
2023/06/27 00:32:26;;;;;;;;;;;;;;;21.54;90.55;99306.44;309734;31;4892;-77
2023/06/27 00:32:36;;;;;;;;;;;;;;;21.54;90.65;99311.75;308632;32;1168;-77
2023/06/27 00:32:47;;;;;;;;;;;;;;;21.54;90.52;99300.28;303034;32;4724;-77
2023/06/27 00:32:57;;;;;;;;;;;;;;;21.52;91.17;99303.06;304182;32;4507;-77
2023/06/27 00:33:09;;;;;;;;;;;;;;;21.51;90.99;99300.56;303495;32;4280;-77
2023/06/27 00:33:19;;;;;;;;;;;;;;;21.50;91.28;99299.72;302834;32;1555;-76
2023/06/27 00:33:29;;;;;;;;;;;;;;;21.50;90.95;99299.72;300494;32;3232;-76
2023/06/27 00:33:39;;;;;;;;;;;;;;;21.50;91.34;99299.72;300524;32;3610;-76
2023/06/27 00:33:49;;;;;;;;;;;;;;;21.49;91.14;99308.69;298256;33;1485;-76
2023/06/27 00:34:00;;;;;;;;;;;;;;;21.50;91.67;99299.72;296304;33;4910;-77
2023/06/27 00:34:10;;;;;;;;;;;;;;;21.49;91.52;99295.38;298308;32;5676;-77
2023/06/27 00:34:20;;;;;;;;;;;;;;;21.49;91.74;99298.03;302483;32;1466;-77
2023/06/27 00:34:30;;;;;;;;;;;;;;;21.48;91.10;99299.00;299795;32;6598;-77
2023/06/27 00:34:41;;;;;;;;;;;;;;;21.47;90.90;99304.47;299209;32;6630;-77
2023/06/27 00:34:51;;;;;;;;;;;;;;;21.46;91.34;99300.97;299654;32;1524;-77
2023/06/27 00:35:02;;;;;;;;;;;;;;;21.47;91.13;99302.66;299163;32;6990;-77
2023/06/27 00:35:12;;;;;;;;;;;;;;;21.48;91.55;99300.81;298378;32;6608;-77
2023/06/27 00:35:22;;;;;;;;;;;;;;;21.48;91.25;99300.81;297971;32;6538;-77
2023/06/27 00:35:32;;;;;;;;;;;;;;;21.50;91.30;99304.19;295877;33;1492;-77
2023/06/27 00:35:43;;;;;;;;;;;;;;;21.49;91.69;99303.34;295117;33;4559;-77
2023/06/27 00:35:53;;;;;;;;;;;;;;;21.50;91.54;99302.38;296749;32;5699;-77
2023/06/27 00:36:05;;;;;;;;;;;;;;;21.49;91.59;99306.00;297269;33;1187;-77
2023/06/27 00:36:16;;;;;;;;;;;;;;;21.48;91.40;99304.34;291206;33;7418;-77
2023/06/27 00:36:26;;;;;;;;;;;;;;;21.48;91.55;99307.00;290641;33;7804;-76
2023/06/27 00:36:36;;;;;;;;;;;;;;;21.47;91.67;99305.31;292351;33;3816;-77
2023/06/27 00:36:46;;;;;;;;;;;;;;;21.48;91.71;99307.00;289498;33;8796;-77
2023/06/27 00:36:57;;;;;;;;;;;;;;;21.48;91.40;99296.34;290492;33;9427;-77
2023/06/27 00:38:45;;;;;;;;;;;;;;;21.52;91.77;99305.75;2503922;27;19933;-76
2023/06/27 00:38:56;;;;;;;;;;;;;;;21.53;91.50;99304.75;353713;27;1405;-76
2023/06/27 00:39:06;;;;;;;;;;;;;;;21.54;91.55;99309.09;350518;28;1408;-76
2023/06/27 00:39:16;;;;;;;;;;;;;;;21.54;91.71;99306.44;350558;28;1382;-76
2023/06/27 00:39:27;;;;;;;;;;;;;;;21.54;91.33;99306.44;349200;28;765;-76
2023/06/27 00:39:39;;;;;;;;;;;;;;;21.54;91.46;99303.78;349113;28;789;-76
2023/06/27 00:39:49;;;;;;;;;;;;;;;21.55;91.33;99302.78;349088;28;1127;-76
2023/06/27 00:40:00;;;;;;;;;;;;;;;21.56;91.41;99301.81;347783;28;745;-76
2023/06/27 00:40:10;;;;;;;;;;;;;;;21.57;91.54;99307.97;348542;28;874;-76
2023/06/27 00:40:20;;;;;;;;;;;;;;;21.56;91.43;99304.47;348923;28;1215;-76
2023/06/27 00:40:31;;;;;;;;;;;;;;;21.56;91.20;99301.81;349045;28;1207;-76
2023/06/27 00:40:41;;;;;;;;;;;;;;;21.56;91.22;99301.81;349878;28;1213;-76
2023/06/27 00:40:51;;;;;;;;;;;;;;;21.56;91.25;99307.16;347711;28;923;-76
2023/06/27 00:41:01;;;;;;;;;;;;;;;21.54;90.86;99306.44;347828;28;895;-76
2023/06/27 00:41:12;;;;;;;;;;;;;;;21.53;91.13;99304.75;344991;28;1227;-76
2023/06/27 00:41:22;;;;;;;;;;;;;;;21.54;91.29;99303.78;345042;28;861;-76
2023/06/27 00:41:32;;;;;;;;;;;;;;;21.54;91.42;99309.09;345008;28;1572;-76
2023/06/27 00:41:42;;;;;;;;;;;;;;;21.55;91.13;99301.97;347663;28;1447;-76
2023/06/27 00:41:52;;;;;;;;;;;;;;;21.54;91.04;99301.13;346287;28;1187;-76
2023/06/27 00:42:03;;;;;;;;;;;;;;;21.56;91.25;99309.81;345018;28;932;-76
2023/06/27 00:42:13;;;;;;;;;;;;;;;21.56;91.06;99303.63;344809;28;1231;-76
2023/06/27 00:42:23;;;;;;;;;;;;;;;21.56;91.19;99304.47;345468;28;1166;-76
2023/06/27 00:42:34;;;;;;;;;;;;;;;21.56;91.53;99306.31;346227;28;1380;-76
2023/06/27 00:42:44;;;;;;;;;;;;;;;21.56;91.47;99299.16;347654;28;880;-76
2023/06/27 00:42:54;;;;;;;;;;;;;;;21.56;91.46;99304.47;346804;28;1295;-76
2023/06/27 00:43:04;;;;;;;;;;;;;;;21.56;91.27;99308.97;345279;28;965;-76
2023/06/27 00:43:15;;;;;;;;;;;;;;;21.56;91.03;99308.97;347700;28;867;-76
2023/06/27 00:43:27;;;;;;;;;;;;;;;21.56;91.23;99309.81;346337;28;877;-76
2023/06/27 00:43:37;;;;;;;;;;;;;;;21.56;91.73;99304.47;344959;28;1311;-76
2023/06/27 00:43:48;;;;;;;;;;;;;;;21.55;91.89;99305.47;346310;28;1212;-76
2023/06/27 00:43:58;;;;;;;;;;;;;;;21.55;91.35;99301.97;346240;28;1280;-76
2023/06/27 00:44:08;;;;;;;;;;;;;;;21.56;91.86;99304.47;347625;28;1324;-76
2023/06/27 00:44:18;;;;;;;;;;;;;;;21.56;91.79;99307.16;346473;28;1209;-76
2023/06/27 00:44:28;;;;;;;;;;;;;;;21.55;91.76;99310.78;348812;28;831;-76
2023/06/27 00:44:39;;;;;;;;;;;;;;;21.55;91.40;99312.59;348268;28;1130;-76
2023/06/27 00:44:49;;;;;;;;;;;;;;;21.55;91.75;99310.78;349047;28;1337;-76
2023/06/27 00:44:59;;;;;;;;;;;;;;;21.55;91.76;99301.97;347612;28;1012;-77
2023/06/27 00:45:10;;;;;;;;;;;;;;;21.56;91.92;99309.81;347135;28;1231;-76
2023/06/27 00:45:22;;;;;;;;;;;;;;;21.57;91.92;99305.31;348929;28;1208;-77
2023/06/27 00:45:32;;;;;;;;;;;;;;;21.57;91.96;99306.16;351436;28;3310;-76
2023/06/27 00:45:43;;;;;;;;;;;;;;;21.57;92.00;99311.50;347544;28;3749;-76
2023/06/27 00:45:53;;;;;;;;;;;;;;;21.58;91.76;99305.19;348764;28;2990;-76
2023/06/27 00:46:05;;;;;;;;;;;;;;;21.59;91.81;99303.34;346427;28;895;-76
2023/06/27 00:46:19;;;;;;;;;;;;;;;21.58;91.98;99305.19;344722;28;3249;-76
2023/06/27 00:46:47;;;;;;;;;;;;;;;21.56;91.92;99309.81;348944;28;1180;-76
2023/06/27 00:46:58;;;;;;;;;;;;;;;21.55;91.88;99296.63;345695;28;1532;-76
2023/06/27 00:47:08;;;;;;;;;;;;;;;21.53;91.75;99304.75;343959;28;1292;-76
2023/06/27 00:47:18;;;;;;;;;;;;;;;21.54;91.55;99301.13;344934;28;1262;-76
2023/06/27 00:47:28;;;;;;;;;;;;;;;21.53;91.65;99307.41;341831;28;1589;-76
2023/06/27 00:47:39;;;;;;;;;;;;;;;21.52;91.68;99308.41;342931;28;1922;-77
2023/06/27 00:47:49;;;;;;;;;;;;;;;21.53;91.73;99309.25;340886;28;1590;-77
2023/06/27 00:48:02;;;;;;;;;;;;;;;21.53;91.71;99304.75;341806;28;847;-76
2023/06/27 00:48:14;;;;;;;;;;;;;;;21.52;91.71;99308.41;342096;28;751;-76
2023/06/27 00:48:24;;;;;;;;;;;;;;;21.52;91.65;99303.06;342764;28;1374;-76
2023/06/27 00:48:34;;;;;;;;;;;;;;;21.52;91.95;99312.88;340884;29;1294;-76
2023/06/27 00:48:44;;;;;;;;;;;;;;;21.51;91.67;99306.72;337589;29;1503;-76
2023/06/27 00:48:54;;;;;;;;;;;;;;;21.51;91.89;99300.56;332783;29;1661;-76
2023/06/27 00:49:08;;;;;;;;;;;;;;;21.50;91.64;99305.03;328989;29;1887;-76
2023/06/27 00:49:18;;;;;;;;;;;;;;;21.50;92.35;99305.03;334535;29;874;-76
2023/06/27 00:49:29;;;;;;;;;;;;;;;21.51;91.89;99311.19;339099;29;1979;-76
2023/06/27 00:49:39;;;;;;;;;;;;;;;21.51;91.88;99311.19;339398;29;2188;-76
2023/06/27 00:49:49;;;;;;;;;;;;;;;21.49;91.63;99306.00;336998;29;1223;-76
2023/06/27 00:49:59;;;;;;;;;;;;;;;21.50;91.77;99310.38;336991;29;1430;-76
2023/06/27 00:50:10;;;;;;;;;;;;;;;21.49;91.60;99306.00;337664;29;1250;-76
2023/06/27 00:50:20;;;;;;;;;;;;;;;21.49;91.80;99308.69;338313;29;1472;-77
2023/06/27 00:50:30;;;;;;;;;;;;;;;21.50;91.38;99305.03;338420;29;755;-77
2023/06/27 00:50:41;;;;;;;;;;;;;;;21.50;91.50;99305.03;338484;29;1699;-76
2023/06/27 00:50:52;;;;;;;;;;;;;;;21.50;91.57;99310.38;338740;29;1965;-76
2023/06/27 00:51:03;;;;;;;;;;;;;;;21.51;91.67;99305.88;337106;29;988;-76
2023/06/27 00:51:13;;;;;;;;;;;;;;;21.52;92.01;99303.06;335233;29;2257;-76
2023/06/27 00:51:23;;;;;;;;;;;;;;;21.53;92.12;99303.91;333160;29;2485;-76
2023/06/27 00:51:34;;;;;;;;;;;;;;;21.53;91.69;99306.56;333236;29;1319;-76
2023/06/27 00:51:44;;;;;;;;;;;;;;;21.53;92.19;99307.41;332639;29;2292;-76
2023/06/27 00:51:55;;;;;;;;;;;;;;;21.52;91.79;99303.06;332931;29;2436;-76
2023/06/27 00:52:05;;;;;;;;;;;;;;;21.52;92.50;99303.06;331843;29;1836;-76
2023/06/27 00:52:15;;;;;;;;;;;;;;;21.53;92.16;99310.09;329469;30;870;-76
2023/06/27 00:52:26;;;;;;;;;;;;;;;21.52;92.55;99311.06;330809;29;1712;-76
2023/06/27 00:52:36;;;;;;;;;;;;;;;21.52;92.27;99311.06;330904;29;2579;-76
2023/06/27 00:52:47;;;;;;;;;;;;;;;21.50;91.92;99310.38;325811;30;1466;-76
2023/06/27 00:53:00;;;;;;;;;;;;;;;21.48;91.55;99307.00;325620;30;2212;-76
2023/06/27 00:53:10;;;;;;;;;;;;;;;21.49;92.24;99308.69;324462;30;2600;-76
2023/06/27 00:53:20;;;;;;;;;;;;;;;21.50;92.20;99312.19;323519;30;3274;-76
2023/06/27 00:53:31;;;;;;;;;;;;;;;21.49;91.89;99308.69;324591;30;1191;-76
2023/06/27 00:53:41;;;;;;;;;;;;;;;21.49;92.45;99308.69;320539;30;3495;-76
2023/06/27 00:53:51;;;;;;;;;;;;;;;21.49;91.83;99314.00;317888;30;3196;-76
2023/06/27 00:54:02;;;;;;;;;;;;;;;21.50;92.28;99307.69;320978;30;1528;-76
2023/06/27 00:54:12;;;;;;;;;;;;;;;21.50;92.43;99309.53;320969;30;3066;-76
2023/06/27 00:54:23;;;;;;;;;;;;;;;21.49;92.49;99306.00;320315;30;2927;-76
2023/06/27 00:54:33;;;;;;;;;;;;;;;21.49;92.32;99303.34;319872;30;1203;-76
2023/06/27 00:54:43;;;;;;;;;;;;;;;21.50;92.43;99310.38;323397;30;3486;-76
2023/06/27 00:54:54;;;;;;;;;;;;;;;21.51;92.56;99311.19;323933;30;2770;-76
2023/06/27 00:55:05;;;;;;;;;;;;;;;21.52;92.61;99307.56;317767;30;3084;-76
2023/06/27 00:55:15;;;;;;;;;;;;;;;21.51;92.12;99312.03;318356;31;5175;-76
2023/06/27 00:55:25;;;;;;;;;;;;;;;21.50;92.71;99307.69;315140;31;3793;-76
2023/06/27 00:55:37;;;;;;;;;;;;;;;21.52;92.69;99310.22;313770;31;4357;-76
2023/06/27 00:55:48;;;;;;;;;;;;;;;21.51;92.42;99312.03;314295;31;853;-76
2023/06/27 00:55:58;;;;;;;;;;;;;;;21.50;92.38;99305.03;311060;31;4688;-76
2023/06/27 00:56:08;;;;;;;;;;;;;;;21.51;92.13;99305.88;311576;31;4778;-76
2023/06/27 00:56:18;;;;;;;;;;;;;;;21.50;92.44;99305.03;312036;31;1164;-76
2023/06/27 00:56:29;;;;;;;;;;;;;;;21.48;91.86;99307.00;310311;31;4316;-76
2023/06/27 00:56:39;;;;;;;;;;;;;;;21.49;92.16;99313.16;309331;31;3546;-76
2023/06/27 00:56:51;;;;;;;;;;;;;;;21.49;91.83;99314.00;310942;31;815;-76
2023/06/27 00:57:01;;;;;;;;;;;;;;;21.49;91.75;99306.00;302379;32;856;-76
2023/06/27 00:57:12;;;;;;;;;;;;;;;21.51;91.69;99313.88;303579;32;3896;-76
2023/06/27 00:57:22;;;;;;;;;;;;;;;21.50;91.92;99310.38;301927;32;4983;-76
2023/06/27 00:57:32;;;;;;;;;;;;;;;21.50;91.74;99310.38;301179;32;1336;-76
2023/06/27 00:57:43;;;;;;;;;;;;;;;21.50;91.93;99310.38;299726;32;5498;-76
2023/06/27 00:57:53;;;;;;;;;;;;;;;21.51;91.50;99314.72;298577;32;5789;-76
2023/06/27 00:58:04;;;;;;;;;;;;;;;21.51;91.61;99312.03;299339;33;878;-76
2023/06/27 00:58:14;;;;;;;;;;;;;;;21.51;92.04;99306.72;299827;32;7235;-76
2023/06/27 00:58:24;;;;;;;;;;;;;;;21.50;92.09;99304.19;297409;32;6204;-76
2023/06/27 00:58:35;;;;;;;;;;;;;;;21.51;91.87;99314.72;296185;33;1300;-76
2023/06/27 00:58:45;;;;;;;;;;;;;;;21.50;91.78;99310.38;296304;33;827;-76
2023/06/27 00:58:57;;;;;;;;;;;;;;;21.48;92.04;99312.31;294657;33;5211;-76
2023/06/27 00:59:07;;;;;;;;;;;;;;;21.48;91.97;99312.31;293968;33;4662;-76
2023/06/27 00:59:17;;;;;;;;;;;;;;;21.48;92.08;99307.00;294860;33;1139;-76
2023/06/27 00:59:27;;;;;;;;;;;;;;;21.49;91.98;99308.69;292291;33;5562;-76
2023/06/27 00:59:38;;;;;;;;;;;;;;;21.50;91.90;99310.38;291194;33;7579;-76
2023/06/27 00:59:48;;;;;;;;;;;;;;;21.50;91.49;99315.69;290366;34;1249;-76
2023/06/27 00:59:58;;;;;;;;;;;;;;;21.50;91.94;99305.03;285639;33;8387;-76
2023/06/27 01:00:12;;;;;;;;;;;;;;;21.50;92.31;99315.69;284773;33;8812;-76
2023/06/27 01:00:22;;;;;;;;;;;;;;;21.51;92.01;99312.03;285644;34;11010;-76
2023/06/27 01:00:32;;;;;;;;;;;;;;;21.52;91.98;99311.06;288429;34;880;-76
2023/06/27 01:02:23;;;;;;;;;;;;;;;21.48;92.14;99312.31;2503970;27;19923;-76
2023/06/27 01:02:34;;;;;;;;;;;;;;;21.47;92.25;99310.63;354743;27;875;-76
2023/06/27 01:02:47;;;;;;;;;;;;;;;21.47;92.18;99307.97;352384;28;1689;-76
2023/06/27 01:02:57;;;;;;;;;;;;;;;21.47;92.25;99310.63;349045;28;1233;-76
2023/06/27 01:03:08;;;;;;;;;;;;;;;21.46;92.18;99308.13;349196;28;959;-76